createdAt,value
2018-10-21T00:00:44.754Z,92.18
2018-10-21T00:01:44.746Z,91.61
2018-10-21T00:02:44.739Z,91.61
2018-10-21T00:03:44.729Z,91.99
2018-10-21T00:04:44.715Z,91.99
2018-10-21T00:05:44.707Z,91.61
2018-10-21T00:06:44.703Z,91.61
2018-10-21T00:07:44.698Z,91.42
2018-10-21T00:08:44.679Z,91.71
2018-10-21T00:09:44.672Z,91.71
2018-10-21T00:10:44.663Z,92.08
2018-10-21T00:11:44.652Z,91.99
2018-10-21T00:12:44.652Z,91.80
2018-10-21T00:13:44.639Z,91.89
2018-10-21T00:14:44.632Z,91.52
2018-10-21T00:15:44.741Z,91.89
2018-10-21T00:16:44.608Z,92.18
2018-10-21T00:17:44.603Z,92.08
2018-10-21T00:18:44.590Z,92.75
2018-10-21T00:19:44.582Z,93.13
2018-10-21T00:20:44.577Z,92.85
2018-10-21T00:21:44.569Z,92.85
2018-10-21T00:22:44.555Z,92.56
2018-10-21T00:23:44.546Z,93.51
2018-10-21T00:24:44.544Z,93.70
2018-10-21T00:25:44.532Z,92.56
2018-10-21T00:26:44.523Z,92.56
2018-10-21T00:27:44.513Z,92.56
2018-10-21T00:28:44.500Z,92.75
2018-10-21T00:29:44.491Z,93.04
2018-10-21T00:30:44.483Z,92.37
2018-10-21T00:31:44.473Z,92.94
2018-10-21T00:32:44.468Z,92.37
2018-10-21T00:33:44.464Z,92.37
2018-10-21T00:34:44.456Z,92.46
2018-10-21T00:35:44.445Z,92.37
2018-10-21T00:36:44.429Z,92.46
2018-10-21T00:37:44.422Z,92.18
2018-10-21T00:38:44.420Z,91.89
2018-10-21T00:39:44.410Z,92.94
2018-10-21T00:40:44.392Z,93.23
2018-10-21T00:41:44.384Z,93.32
2018-10-21T00:42:44.376Z,93.79
2018-10-21T00:43:44.365Z,94.56
2018-10-21T00:44:44.360Z,94.65
2018-10-21T00:45:44.352Z,95.12
2018-10-21T00:46:44.345Z,95.03
2018-10-21T00:47:44.334Z,94.65
2018-10-21T00:48:44.321Z,94.84
2018-10-21T00:49:44.313Z,94.93
2018-10-21T00:50:44.303Z,95.12
2018-10-21T00:51:44.297Z,94.56
2018-10-21T00:52:44.293Z,94.93
2018-10-21T00:53:44.280Z,94.18
2018-10-21T00:54:44.266Z,93.23
2018-10-21T00:55:44.256Z,93.23
2018-10-21T00:56:44.253Z,93.41
2018-10-21T00:57:44.244Z,93.51
2018-10-21T00:58:44.234Z,92.37
2018-10-21T00:59:44.225Z,93.04
2018-10-21T01:00:44.211Z,92.66
2018-10-21T01:01:44.202Z,92.08
2018-10-21T01:02:44.193Z,92.94
2018-10-21T01:03:44.185Z,92.37
2018-10-21T01:04:44.180Z,91.89
2018-10-21T01:05:44.171Z,92.08
2018-10-21T01:06:44.164Z,92.75
2018-10-21T01:07:44.153Z,91.80
2018-10-21T01:08:44.139Z,92.56
2018-10-21T01:09:44.131Z,91.61
2018-10-21T01:10:44.127Z,91.71
2018-10-21T01:11:44.117Z,91.99
2018-10-21T01:12:44.103Z,91.89
2018-10-21T01:13:44.095Z,92.08
2018-10-21T01:14:44.085Z,91.89
2018-10-21T01:15:44.078Z,91.99
2018-10-21T01:16:44.073Z,92.56
2018-10-21T01:17:44.062Z,92.18
2018-10-21T01:18:44.054Z,92.46
2018-10-21T01:19:44.043Z,92.08
2018-10-21T01:20:44.029Z,93.18
2018-10-21T01:21:44.021Z,92.18
2018-10-21T01:22:44.013Z,92.32
2018-10-21T01:23:44.004Z,92.90
2018-10-21T01:24:43.999Z,93.04
2018-10-21T01:25:43.990Z,92.75
2018-10-21T01:26:43.976Z,93.18
2018-10-21T01:27:43.966Z,92.32
2018-10-21T01:28:43.962Z,92.61
2018-10-21T01:29:43.957Z,92.80
2018-10-21T01:30:43.943Z,92.90
2018-10-21T01:31:43.934Z,92.61
2018-10-21T01:32:43.921Z,92.61
2018-10-21T01:33:43.910Z,93.46
2018-10-21T01:34:43.902Z,93.46
2018-10-21T01:35:43.893Z,93.27
2018-10-21T01:36:43.965Z,93.56
2018-10-21T01:37:43.883Z,93.46
2018-10-21T01:38:43.870Z,93.56
2018-10-21T01:39:43.861Z,93.27
2018-10-21T01:40:43.846Z,92.99
2018-10-21T01:41:43.837Z,93.46
2018-10-21T01:42:43.839Z,93.46
2018-10-21T01:43:43.824Z,92.71
2018-10-21T01:44:43.810Z,92.51
2018-10-21T01:45:43.801Z,92.99
2018-10-21T01:46:43.791Z,92.32
2018-10-21T01:47:43.785Z,92.42
2018-10-21T01:48:43.776Z,93.37
2018-10-21T01:49:43.769Z,92.71
2018-10-21T01:50:43.759Z,92.71
2018-10-21T01:51:43.750Z,92.99
2018-10-21T01:52:43.737Z,92.51
2018-10-21T01:53:43.727Z,92.90
2018-10-21T01:54:43.717Z,92.42
2018-10-21T01:55:43.707Z,92.23
2018-10-21T01:56:43.703Z,93.27
2018-10-21T01:57:43.694Z,92.80
2018-10-21T01:58:43.680Z,92.61
2018-10-21T01:59:43.671Z,92.80
2018-10-21T02:00:43.688Z,93.46
2018-10-21T02:01:43.657Z,93.46
2018-10-21T02:02:43.648Z,93.08
2018-10-21T02:03:43.638Z,93.84
2018-10-21T02:04:43.629Z,93.37
2018-10-21T02:05:43.615Z,92.90
2018-10-21T02:06:43.607Z,93.18
2018-10-21T02:07:43.596Z,92.90
2018-10-21T02:08:43.592Z,92.90
2018-10-21T02:09:43.582Z,92.90
2018-10-21T02:10:43.576Z,93.18
2018-10-21T02:11:43.566Z,93.27
2018-10-21T02:12:43.549Z,93.46
2018-10-21T02:13:43.541Z,93.46
2018-10-21T02:14:43.535Z,92.51
2018-10-21T02:15:43.525Z,93.18
2018-10-21T02:16:43.512Z,93.08
2018-10-21T02:17:43.503Z,93.27
2018-10-21T02:18:43.495Z,93.46
2018-10-21T02:19:43.484Z,93.56
2018-10-21T02:20:43.480Z,93.46
2018-10-21T02:21:43.470Z,93.37
2018-10-21T02:22:43.461Z,93.18
2018-10-21T02:23:43.451Z,93.46
2018-10-21T02:24:43.437Z,93.27
2018-10-21T02:25:43.429Z,93.27
2018-10-21T02:26:43.465Z,93.18
2018-10-21T02:27:43.408Z,93.18
2018-10-21T02:28:43.406Z,93.27
2018-10-21T02:29:43.395Z,92.71
2018-10-21T02:30:43.381Z,92.99
2018-10-21T02:31:43.371Z,93.18
2018-10-21T02:32:43.367Z,93.08
2018-10-21T02:33:43.446Z,93.18
2018-10-21T02:34:43.349Z,92.99
2018-10-21T02:35:43.341Z,93.08
2018-10-21T02:36:43.324Z,93.18
2018-10-21T02:37:43.315Z,93.27
2018-10-21T02:38:43.308Z,93.18
2018-10-21T02:39:43.300Z,93.18
2018-10-21T02:40:43.292Z,93.56
2018-10-21T02:41:43.282Z,93.37
2018-10-21T02:42:43.273Z,93.65
2018-10-21T02:43:43.263Z,93.56
2018-10-21T02:44:43.249Z,94.03
2018-10-21T02:45:43.240Z,94.03
2018-10-21T02:46:43.236Z,94.51
2018-10-21T02:47:43.225Z,94.89
2018-10-21T02:48:43.211Z,94.70
2018-10-21T02:49:43.201Z,94.98
2018-10-21T02:50:43.192Z,94.23
2018-10-21T02:51:43.187Z,94.60
2018-10-21T02:52:43.177Z,94.51
2018-10-21T02:53:43.170Z,94.23
2018-10-21T02:54:43.159Z,94.98
2018-10-21T02:55:43.149Z,94.79
2018-10-21T02:56:43.144Z,94.70
2018-10-21T02:57:43.134Z,94.79
2018-10-21T02:58:43.117Z,94.70
2018-10-21T02:59:43.107Z,94.70
2018-10-21T03:00:43.102Z,94.89
2018-10-21T03:01:43.093Z,94.70
2018-10-21T03:02:43.079Z,94.70
2018-10-21T03:03:43.070Z,94.51
2018-10-21T03:04:43.065Z,94.98
2018-10-21T03:05:43.055Z,94.98
2018-10-21T03:06:43.046Z,94.42
2018-10-21T03:07:43.036Z,94.13
2018-10-21T03:08:43.022Z,93.75
2018-10-21T03:09:43.012Z,93.84
2018-10-21T03:10:43.006Z,93.27
2018-10-21T03:11:42.997Z,93.56
2018-10-21T03:12:42.989Z,92.90
2018-10-21T03:13:42.978Z,93.08
2018-10-21T03:14:42.970Z,92.90
2018-10-21T03:15:42.965Z,93.37
2018-10-21T03:16:42.947Z,93.56
2018-10-21T03:17:42.936Z,94.23
2018-10-21T03:18:42.935Z,93.18
2018-10-21T03:19:42.923Z,93.18
2018-10-21T03:20:42.908Z,93.08
2018-10-21T03:21:42.900Z,93.46
2018-10-21T03:22:42.894Z,93.46
2018-10-21T03:23:42.879Z,93.08
2018-10-21T03:24:42.875Z,93.08
2018-10-21T03:25:42.865Z,92.99
2018-10-21T03:26:42.857Z,92.90
2018-10-21T03:27:42.845Z,92.80
2018-10-21T03:28:42.835Z,93.18
2018-10-21T03:29:42.823Z,93.65
2018-10-21T03:30:42.816Z,93.08
2018-10-21T03:31:42.806Z,92.90
2018-10-21T03:32:42.850Z,92.80
2018-10-21T03:33:42.969Z,93.18
2018-10-21T03:34:42.781Z,93.08
2018-10-21T03:35:42.765Z,92.71
2018-10-21T03:36:42.762Z,93.18
2018-10-21T03:37:42.752Z,93.65
2018-10-21T03:38:42.745Z,93.56
2018-10-21T03:39:42.732Z,93.75
2018-10-21T03:40:42.718Z,94.13
2018-10-21T03:41:42.709Z,94.13
2018-10-21T03:42:42.700Z,94.03
2018-10-21T03:43:42.690Z,94.03
2018-10-21T03:44:42.685Z,93.65
2018-10-21T03:45:42.682Z,93.75
2018-10-21T03:46:42.666Z,93.94
2018-10-21T03:47:42.655Z,93.13
2018-10-21T03:48:42.645Z,93.41
2018-10-21T03:49:42.633Z,93.75
2018-10-21T03:50:42.628Z,94.18
2018-10-21T03:51:42.618Z,93.94
2018-10-21T03:52:42.603Z,93.99
2018-10-21T03:53:42.594Z,93.99
2018-10-21T03:54:42.584Z,94.08
2018-10-21T03:55:42.575Z,93.99
2018-10-21T03:56:42.568Z,93.60
2018-10-21T03:57:42.562Z,93.89
2018-10-21T03:58:42.552Z,93.70
2018-10-21T03:59:42.542Z,94.27
2018-10-21T04:00:42.526Z,93.89
2018-10-21T04:01:42.517Z,94.27
2018-10-21T04:02:42.507Z,94.37
2018-10-21T04:03:42.497Z,93.99
2018-10-21T04:04:42.492Z,94.74
2018-10-21T04:05:42.483Z,94.93
2018-10-21T04:06:42.471Z,95.41
2018-10-21T04:07:42.461Z,95.60
2018-10-21T04:08:42.454Z,95.89
2018-10-21T04:09:42.445Z,96.50
2018-10-21T04:10:42.436Z,96.41
2018-10-21T04:11:42.425Z,95.65
2018-10-21T04:12:42.410Z,95.75
2018-10-21T04:13:42.402Z,95.84
2018-10-21T04:14:42.393Z,95.27
2018-10-21T04:15:42.385Z,94.70
2018-10-21T04:16:42.377Z,94.60
2018-10-21T04:17:42.368Z,94.98
2018-10-21T04:18:42.358Z,94.79
2018-10-21T04:19:42.346Z,94.98
2018-10-21T04:20:42.335Z,94.51
2018-10-21T04:21:42.324Z,94.18
2018-10-21T04:22:42.319Z,93.99
2018-10-21T04:23:42.308Z,93.99
2018-10-21T04:24:42.294Z,93.70
2018-10-21T04:25:42.286Z,93.89
2018-10-21T04:26:42.277Z,93.99
2018-10-21T04:27:42.268Z,94.03
2018-10-21T04:28:42.262Z,93.75
2018-10-21T04:29:42.252Z,94.60
2018-10-21T04:30:42.243Z,93.99
2018-10-21T04:31:42.232Z,93.89
2018-10-21T04:32:42.219Z,94.13
2018-10-21T04:33:42.209Z,94.23
2018-10-21T04:34:42.200Z,94.23
2018-10-21T04:35:42.188Z,94.51
2018-10-21T04:36:42.183Z,93.89
2018-10-21T04:37:42.174Z,93.89
2018-10-21T04:38:42.161Z,93.70
2018-10-21T04:39:42.150Z,93.60
2018-10-21T04:40:42.144Z,94.08
2018-10-21T04:41:42.136Z,93.23
2018-10-21T04:42:42.127Z,93.32
2018-10-21T04:43:42.117Z,93.23
2018-10-21T04:44:42.102Z,93.51
2018-10-21T04:45:42.093Z,93.89
2018-10-21T04:46:42.102Z,93.89
2018-10-21T04:47:42.076Z,93.41
2018-10-21T04:48:42.067Z,93.89
2018-10-21T04:49:42.058Z,94.08
2018-10-21T04:50:42.049Z,94.37
2018-10-21T04:51:42.038Z,94.74
2018-10-21T04:52:42.025Z,94.56
2018-10-21T04:53:42.015Z,95.03
2018-10-21T04:54:42.010Z,94.84
2018-10-21T04:55:41.998Z,94.84
2018-10-21T04:56:41.986Z,94.84
2018-10-21T04:57:41.976Z,94.84
2018-10-21T04:58:41.967Z,94.74
2018-10-21T04:59:41.956Z,94.27
2018-10-21T05:00:42.030Z,94.65
2018-10-21T05:01:41.942Z,95.03
2018-10-21T05:02:41.934Z,94.65
2018-10-21T05:03:41.921Z,94.46
2018-10-21T05:04:41.907Z,93.99
2018-10-21T05:05:41.898Z,94.18
2018-10-21T05:06:41.889Z,93.80
2018-10-21T05:07:42.021Z,93.89
2018-10-21T05:08:41.874Z,94.18
2018-10-21T05:09:41.864Z,94.18
2018-10-21T05:10:41.849Z,95.03
2018-10-21T05:11:41.839Z,94.65
2018-10-21T05:12:41.835Z,95.12
2018-10-21T05:13:41.825Z,94.56
2018-10-21T05:14:41.814Z,94.65
2018-10-21T05:15:41.804Z,94.56
2018-10-21T05:16:41.895Z,94.65
2018-10-21T05:17:41.781Z,94.74
2018-10-21T05:18:41.770Z,94.65
2018-10-21T05:19:41.761Z,94.56
2018-10-21T05:20:41.755Z,95.03
2018-10-21T05:21:41.745Z,94.84
2018-10-21T05:22:41.737Z,94.56
2018-10-21T05:23:41.727Z,94.56
2018-10-21T05:24:41.712Z,94.93
2018-10-21T05:25:41.706Z,94.93
2018-10-21T05:26:41.698Z,94.65
2018-10-21T05:27:41.688Z,94.93
2018-10-21T05:28:41.672Z,94.65
2018-10-21T05:29:41.663Z,95.03
2018-10-21T05:30:41.657Z,94.46
2018-10-21T05:31:41.643Z,94.93
2018-10-21T05:32:41.640Z,94.93
2018-10-21T05:33:41.631Z,94.93
2018-10-21T05:34:41.618Z,94.46
2018-10-21T05:35:41.607Z,94.93
2018-10-21T05:36:41.593Z,94.84
2018-10-21T05:37:41.612Z,94.74
2018-10-21T05:38:41.574Z,94.56
2018-10-21T05:39:41.564Z,94.84
2018-10-21T05:40:41.648Z,95.60
2018-10-21T05:41:41.549Z,95.03
2018-10-21T05:42:41.536Z,94.56
2018-10-21T05:43:41.524Z,94.84
2018-10-21T05:44:41.520Z,95.12
2018-10-21T05:45:41.510Z,95.22
2018-10-21T05:46:41.521Z,95.60
2018-10-21T05:47:41.489Z,95.41
2018-10-21T05:48:41.475Z,95.41
2018-10-21T05:49:41.465Z,95.70
2018-10-21T05:50:41.455Z,95.12
2018-10-21T05:51:41.444Z,95.12
2018-10-21T05:52:41.439Z,94.93
2018-10-21T05:53:41.431Z,94.74
2018-10-21T05:54:41.421Z,95.12
2018-10-21T05:55:41.410Z,94.93
2018-10-21T05:56:41.395Z,94.46
2018-10-21T05:57:41.412Z,95.03
2018-10-21T05:58:41.382Z,95.12
2018-10-21T05:59:41.369Z,95.12
2018-10-21T06:00:41.360Z,94.65
2018-10-21T06:01:41.347Z,94.74
2018-10-21T06:02:41.387Z,94.74
2018-10-21T06:03:41.327Z,95.12
2018-10-21T06:04:41.320Z,95.03
2018-10-21T06:05:41.310Z,95.22
2018-10-21T06:06:41.302Z,94.93
2018-10-21T06:07:41.292Z,95.12
2018-10-21T06:08:41.277Z,95.31
2018-10-21T06:09:41.267Z,95.03
2018-10-21T06:10:41.258Z,95.31
2018-10-21T06:11:41.247Z,95.12
2018-10-21T06:12:41.251Z,94.93
2018-10-21T06:13:41.231Z,94.93
2018-10-21T06:14:41.218Z,95.03
2018-10-21T06:15:41.224Z,94.74
2018-10-21T06:16:41.202Z,95.03
2018-10-21T06:17:41.194Z,94.74
2018-10-21T06:18:41.184Z,95.03
2018-10-21T06:19:41.172Z,95.22
2018-10-21T06:20:41.159Z,94.84
2018-10-21T06:21:41.148Z,94.56
2018-10-21T06:22:41.140Z,95.03
2018-10-21T06:23:41.137Z,94.74
2018-10-21T06:24:41.124Z,95.03
2018-10-21T06:25:41.114Z,95.03
2018-10-21T06:26:41.105Z,95.12
2018-10-21T06:27:41.162Z,94.56
2018-10-21T06:28:41.079Z,94.65
2018-10-21T06:29:41.070Z,94.98
2018-10-21T06:30:41.069Z,94.89
2018-10-21T06:31:41.055Z,94.32
2018-10-21T06:32:41.043Z,94.98
2018-10-21T06:33:41.148Z,94.42
2018-10-21T06:34:41.022Z,94.27
2018-10-21T06:35:41.011Z,93.51
2018-10-21T06:36:41.038Z,92.94
2018-10-21T06:37:40.998Z,93.13
2018-10-21T06:38:40.988Z,93.23
2018-10-21T06:39:40.978Z,93.13
2018-10-21T06:40:40.964Z,93.23
2018-10-21T06:41:40.953Z,93.32
2018-10-21T06:42:40.950Z,93.23
2018-10-21T06:43:40.934Z,93.51
2018-10-21T06:44:40.929Z,92.75
2018-10-21T06:45:41.017Z,92.56
2018-10-21T06:46:40.910Z,92.56
2018-10-21T06:47:40.897Z,92.37
2018-10-21T06:48:40.894Z,92.18
2018-10-21T06:49:40.883Z,92.56
2018-10-21T06:50:40.876Z,92.37
2018-10-21T06:51:40.865Z,92.27
2018-10-21T06:52:40.851Z,92.75
2018-10-21T06:53:40.843Z,93.27
2018-10-21T06:54:40.834Z,92.80
2018-10-21T06:55:40.823Z,93.46
2018-10-21T06:56:40.901Z,93.32
2018-10-21T06:57:40.866Z,93.55
2018-10-21T06:58:40.800Z,91.79
2018-10-21T06:59:40.792Z,90.98
2018-10-21T07:00:40.778Z,89.54
2018-10-21T07:01:40.770Z,87.78
2018-10-21T07:02:40.767Z,85.63
2018-10-21T07:03:40.759Z,83.18
2018-10-21T07:04:40.812Z,82.08
2018-10-21T07:05:40.739Z,79.93
2018-10-21T07:06:40.732Z,77.76
2018-10-21T07:07:40.725Z,75.60
2018-10-21T07:08:40.722Z,73.91
2018-10-21T07:09:40.717Z,71.46
2018-10-21T07:10:40.710Z,69.83
2018-10-21T07:11:40.704Z,68.43
2018-10-21T07:12:40.694Z,67.69
2018-10-21T07:13:40.688Z,66.86
2018-10-21T07:14:40.687Z,65.14
2018-10-21T07:15:40.738Z,63.83
2018-10-21T07:16:40.845Z,63.19
2018-10-21T07:17:40.675Z,62.13
2018-10-21T07:18:40.665Z,61.97
2018-10-21T07:19:40.662Z,60.14
2018-10-21T07:20:40.663Z,59.69
2018-10-21T07:21:40.660Z,58.83
2018-10-21T07:22:40.656Z,58.28
2018-10-21T07:23:40.653Z,57.92
2018-10-21T07:24:40.645Z,57.45
2018-10-21T07:25:40.643Z,56.38
2018-10-21T07:26:40.643Z,55.93
2018-10-21T07:27:40.639Z,55.38
2018-10-21T07:28:40.644Z,54.80
2018-10-21T07:29:40.642Z,54.03
2018-10-21T07:30:40.640Z,54.22
2018-10-21T07:31:40.639Z,53.96
2018-10-21T07:32:40.633Z,53.99
2018-10-21T07:33:40.632Z,52.73
2018-10-21T07:34:40.638Z,52.04
2018-10-21T07:35:40.636Z,52.47
2018-10-21T07:36:40.632Z,52.95
2018-10-21T07:37:40.631Z,53.81
2018-10-21T07:38:40.633Z,53.81
2018-10-21T07:39:40.632Z,54.00
2018-10-21T07:40:40.637Z,54.00
2018-10-21T07:41:40.637Z,54.13
2018-10-21T07:42:40.638Z,54.03
2018-10-21T07:43:40.639Z,54.30
2018-10-21T07:44:40.636Z,54.10
2018-10-21T07:45:40.640Z,54.30
2018-10-21T07:46:40.712Z,54.58
2018-10-21T07:47:40.640Z,54.30
2018-10-21T07:48:40.648Z,54.20
2018-10-21T07:49:40.648Z,53.88
2018-10-21T07:50:40.645Z,54.27
2018-10-21T07:51:40.648Z,54.46
2018-10-21T07:52:40.653Z,54.56
2018-10-21T07:53:40.655Z,54.85
2018-10-21T07:54:40.657Z,54.87
2018-10-21T07:55:40.709Z,55.00
2018-10-21T07:56:40.655Z,53.96
2018-10-21T07:57:40.657Z,54.18
2018-10-21T07:58:40.659Z,53.13
2018-10-21T07:59:40.660Z,52.37
2018-10-21T08:00:40.668Z,52.31
2018-10-21T08:01:40.671Z,51.17
2018-10-21T08:02:40.677Z,50.50
2018-10-21T08:03:40.676Z,49.34
2018-10-21T08:04:40.730Z,48.86
2018-10-21T08:05:40.678Z,48.74
2018-10-21T08:06:40.685Z,49.32
2018-10-21T08:07:40.686Z,49.05
2018-10-21T08:08:40.788Z,49.22
2018-10-21T08:09:40.688Z,49.05
2018-10-21T08:10:40.691Z,48.69
2018-10-21T08:11:40.694Z,48.59
2018-10-21T08:12:40.702Z,48.37
2018-10-21T08:13:40.706Z,48.59
2018-10-21T08:14:40.769Z,48.44
2018-10-21T08:15:40.717Z,48.74
2018-10-21T08:16:40.710Z,49.05
2018-10-21T08:17:40.714Z,48.97
2018-10-21T08:18:40.719Z,48.59
2018-10-21T08:19:40.720Z,47.96
2018-10-21T08:20:40.731Z,47.77
2018-10-21T08:21:40.733Z,47.14
2018-10-21T08:22:40.733Z,46.88
2018-10-21T08:23:40.737Z,47.07
2018-10-21T08:24:40.746Z,46.78
2018-10-21T08:25:40.755Z,46.78
2018-10-21T08:26:40.754Z,46.70
2018-10-21T08:27:40.759Z,46.70
2018-10-21T08:28:40.758Z,46.20
2018-10-21T08:29:40.764Z,46.47
2018-10-21T08:30:40.768Z,47.72
2018-10-21T08:31:40.772Z,47.74
2018-10-21T08:32:40.782Z,47.70
2018-10-21T08:33:40.787Z,47.65
2018-10-21T08:34:40.791Z,47.55
2018-10-21T08:35:40.794Z,47.19
2018-10-21T08:36:40.796Z,46.83
2018-10-21T08:37:40.800Z,47.48
2018-10-21T08:38:40.809Z,48.23
2018-10-21T08:39:40.813Z,48.93
2018-10-21T08:40:40.816Z,50.30
2018-10-21T08:41:40.824Z,51.84
2018-10-21T08:42:40.826Z,52.66
2018-10-21T08:43:40.830Z,52.97
2018-10-21T08:44:40.840Z,52.33
2018-10-21T08:45:40.845Z,51.89
2018-10-21T08:46:40.938Z,51.15
2018-10-21T08:47:40.883Z,50.43
2018-10-21T08:48:40.855Z,49.17
2018-10-21T08:49:40.871Z,48.76
2018-10-21T08:50:40.866Z,48.47
2018-10-21T08:51:40.868Z,48.47
2018-10-21T08:52:40.878Z,48.59
2018-10-21T08:53:40.884Z,49.02
2018-10-21T08:54:40.884Z,48.83
2018-10-21T08:55:40.900Z,49.05
2018-10-21T08:56:40.899Z,48.69
2018-10-21T08:57:40.905Z,47.67
2018-10-21T08:58:40.911Z,46.80
2018-10-21T08:59:40.916Z,46.17
2018-10-21T09:00:40.916Z,46.58
2018-10-21T09:01:40.923Z,46.70
2018-10-21T09:02:40.929Z,45.78
2018-10-21T09:03:40.932Z,45.86
2018-10-21T09:04:40.942Z,45.22
2018-10-21T09:05:40.953Z,44.98
2018-10-21T09:06:40.964Z,43.60
2018-10-21T09:07:40.960Z,43.45
2018-10-21T09:08:40.961Z,42.77
2018-10-21T09:09:40.967Z,42.60
2018-10-21T09:10:41.197Z,42.11
2018-10-21T09:11:40.984Z,41.84
2018-10-21T09:12:40.986Z,40.62
2018-10-21T09:13:40.996Z,40.25
2018-10-21T09:14:40.999Z,39.98
2018-10-21T09:15:41.005Z,38.95
2018-10-21T09:16:41.096Z,38.46
2018-10-21T09:17:41.024Z,37.27
2018-10-21T09:18:41.036Z,37.10
2018-10-21T09:19:41.038Z,37.29
2018-10-21T09:20:41.039Z,37.29
2018-10-21T09:21:41.046Z,37.29
2018-10-21T09:22:41.054Z,36.82
2018-10-21T09:23:41.135Z,36.32
2018-10-21T09:24:41.074Z,36.35
2018-10-21T09:25:41.080Z,36.51
2018-10-21T09:26:41.090Z,36.88
2018-10-21T09:27:41.091Z,36.79
2018-10-21T09:28:41.103Z,36.98
2018-10-21T09:29:41.115Z,37.06
2018-10-21T09:30:41.124Z,37.28
2018-10-21T09:31:41.129Z,38.25
2018-10-21T09:32:41.133Z,38.48
2018-10-21T09:33:41.141Z,38.46
2018-10-21T09:34:41.151Z,38.60
2018-10-21T09:35:41.155Z,38.34
2018-10-21T09:36:41.169Z,38.65
2018-10-21T09:37:41.177Z,38.37
2018-10-21T09:38:41.184Z,38.57
2018-10-21T09:39:41.193Z,38.40
2018-10-21T09:40:41.196Z,38.44
2018-10-21T09:41:41.204Z,38.54
2018-10-21T09:42:41.218Z,40.19
2018-10-21T09:43:41.225Z,41.81
2018-10-21T09:44:41.228Z,43.37
2018-10-21T09:45:41.238Z,44.56
2018-10-21T09:46:41.245Z,44.75
2018-10-21T09:47:41.253Z,44.70
2018-10-21T09:48:41.266Z,44.04
2018-10-21T09:49:41.285Z,43.68
2018-10-21T09:50:41.283Z,43.04
2018-10-21T09:51:41.289Z,42.30
2018-10-21T09:52:41.292Z,41.38
2018-10-21T09:53:41.300Z,39.72
2018-10-21T09:54:41.307Z,39.36
2018-10-21T09:55:41.315Z,38.31
2018-10-21T09:56:41.332Z,38.71
2018-10-21T09:57:41.337Z,38.32
2018-10-21T09:58:41.423Z,37.06
2018-10-21T09:59:41.346Z,37.35
2018-10-21T10:00:41.358Z,37.37
2018-10-21T10:01:41.366Z,36.79
2018-10-21T10:02:41.376Z,36.59
2018-10-21T10:03:41.427Z,35.91
2018-10-21T10:04:41.388Z,35.80
2018-10-21T10:05:41.396Z,36.36
2018-10-21T10:06:41.421Z,37.96
2018-10-21T10:07:41.411Z,39.28
2018-10-21T10:08:41.423Z,40.00
2018-10-21T10:09:41.432Z,39.75
2018-10-21T10:10:41.440Z,38.40
2018-10-21T10:11:41.446Z,38.15
2018-10-21T10:12:41.451Z,38.06
2018-10-21T10:13:41.460Z,37.88
2018-10-21T10:14:41.471Z,38.67
2018-10-21T10:15:41.479Z,38.21
2018-10-21T10:16:41.481Z,37.08
2018-10-21T10:17:41.540Z,36.54
2018-10-21T10:18:41.500Z,37.20
2018-10-21T10:19:41.507Z,37.30
2018-10-21T10:20:41.518Z,38.06
2018-10-21T10:21:41.527Z,38.34
2018-10-21T10:22:41.533Z,38.45
2018-10-21T10:23:41.544Z,40.07
2018-10-21T10:24:41.545Z,40.89
2018-10-21T10:25:41.552Z,41.08
2018-10-21T10:26:41.561Z,41.47
2018-10-21T10:27:41.567Z,41.27
2018-10-21T10:28:41.581Z,41.12
2018-10-21T10:29:41.589Z,40.77
2018-10-21T10:30:41.591Z,39.92
2018-10-21T10:31:41.598Z,39.76
2018-10-21T10:32:41.612Z,38.62
2018-10-21T10:33:41.619Z,37.76
2018-10-21T10:34:41.626Z,37.08
2018-10-21T10:35:41.634Z,37.27
2018-10-21T10:36:41.636Z,37.06
2018-10-21T10:37:41.644Z,37.10
2018-10-21T10:38:41.652Z,36.49
2018-10-21T10:39:41.659Z,36.26
2018-10-21T10:40:41.673Z,36.94
2018-10-21T10:41:41.754Z,37.64
2018-10-21T10:42:41.690Z,36.98
2018-10-21T10:43:41.703Z,36.30
2018-10-21T10:44:41.699Z,36.51
2018-10-21T10:45:41.707Z,35.75
2018-10-21T10:46:41.720Z,35.67
2018-10-21T10:47:41.733Z,35.06
2018-10-21T10:48:41.732Z,35.15
2018-10-21T10:49:41.740Z,35.38
2018-10-21T10:50:41.748Z,34.99
2018-10-21T10:51:41.768Z,35.25
2018-10-21T10:52:41.771Z,35.61
2018-10-21T10:53:41.777Z,36.00
2018-10-21T10:54:41.785Z,35.93
2018-10-21T10:55:41.792Z,36.04
2018-10-21T10:56:41.794Z,35.55
2018-10-21T10:57:41.803Z,35.33
2018-10-21T10:58:41.812Z,35.58
2018-10-21T10:59:41.869Z,36.61
2018-10-21T11:00:41.832Z,37.16
2018-10-21T11:01:41.840Z,37.26
2018-10-21T11:02:41.844Z,38.06
2018-10-21T11:03:41.852Z,38.54
2018-10-21T11:04:41.863Z,38.68
2018-10-21T11:05:41.871Z,39.62
2018-10-21T11:06:41.878Z,39.74
2018-10-21T11:07:41.884Z,39.76
2018-10-21T11:08:41.887Z,39.86
2018-10-21T11:09:41.896Z,40.21
2018-10-21T11:10:41.902Z,40.98
2018-10-21T11:11:41.907Z,42.41
2018-10-21T11:12:41.919Z,43.16
2018-10-21T11:13:41.925Z,43.76
2018-10-21T11:14:41.992Z,44.90
2018-10-21T11:15:41.938Z,45.84
2018-10-21T11:16:41.941Z,46.51
2018-10-21T11:17:41.944Z,47.07
2018-10-21T11:18:41.955Z,47.92
2018-10-21T11:19:41.961Z,47.80
2018-10-21T11:20:41.960Z,48.61
2018-10-21T11:21:41.987Z,50.35
2018-10-21T11:22:42.028Z,51.41
2018-10-21T11:23:41.971Z,51.57
2018-10-21T11:24:41.979Z,51.84
2018-10-21T11:25:41.987Z,52.77
2018-10-21T11:26:41.988Z,53.64
2018-10-21T11:27:41.990Z,54.60
2018-10-21T11:28:41.991Z,55.27
2018-10-21T11:29:41.991Z,55.46
2018-10-21T11:30:41.994Z,55.68
2018-10-21T11:31:41.994Z,55.78
2018-10-21T11:32:42.000Z,55.33
2018-10-21T11:33:42.002Z,55.52
2018-10-21T11:34:42.002Z,55.43
2018-10-21T11:35:42.000Z,55.52
2018-10-21T11:36:42.087Z,54.85
2018-10-21T11:37:42.133Z,54.63
2018-10-21T11:38:42.014Z,54.53
2018-10-21T11:39:42.010Z,55.59
2018-10-21T11:40:42.010Z,55.01
2018-10-21T11:41:42.006Z,55.40
2018-10-21T11:42:42.008Z,55.90
2018-10-21T11:43:42.006Z,55.62
2018-10-21T11:44:42.014Z,55.30
2018-10-21T11:45:42.062Z,55.40
2018-10-21T11:46:42.015Z,55.01
2018-10-21T11:47:42.012Z,56.04
2018-10-21T11:48:42.009Z,55.08
2018-10-21T11:49:42.008Z,55.98
2018-10-21T11:50:42.012Z,55.49
2018-10-21T11:51:42.011Z,55.40
2018-10-21T11:52:42.175Z,55.27
2018-10-21T11:53:42.007Z,55.46
2018-10-21T11:54:42.008Z,55.18
2018-10-21T11:55:42.005Z,55.53
2018-10-21T11:56:42.011Z,55.51
2018-10-21T11:57:42.010Z,56.37
2018-10-21T11:58:42.011Z,57.01
2018-10-21T11:59:42.016Z,58.29
2018-10-21T12:00:42.002Z,58.39
2018-10-21T12:01:42.002Z,59.06
2018-10-21T12:02:41.999Z,58.00
2018-10-21T12:03:41.997Z,58.00
2018-10-21T12:04:42.003Z,58.29
2018-10-21T12:05:42.000Z,58.00
2018-10-21T12:06:41.994Z,58.48
2018-10-21T12:07:42.000Z,58.00
2018-10-21T12:08:42.000Z,58.10
2018-10-21T12:09:41.998Z,58.87
2018-10-21T12:10:41.993Z,58.48
2018-10-21T12:11:41.989Z,58.51
2018-10-21T12:12:41.984Z,58.32
2018-10-21T12:13:41.982Z,58.42
2018-10-21T12:14:41.981Z,57.75
2018-10-21T12:15:41.979Z,57.65
2018-10-21T12:16:41.982Z,57.84
2018-10-21T12:17:41.982Z,57.39
2018-10-21T12:18:41.979Z,56.71
2018-10-21T12:19:42.027Z,56.43
2018-10-21T12:20:41.970Z,56.04
2018-10-21T12:21:41.969Z,56.14
2018-10-21T12:22:41.972Z,55.94
2018-10-21T12:23:42.019Z,56.14
2018-10-21T12:24:41.962Z,56.14
2018-10-21T12:25:41.973Z,55.37
2018-10-21T12:26:41.960Z,55.15
2018-10-21T12:27:41.958Z,55.51
2018-10-21T12:28:41.959Z,56.76
2018-10-21T12:29:41.960Z,56.37
2018-10-21T12:30:41.956Z,56.66
2018-10-21T12:31:41.953Z,56.85
2018-10-21T12:32:41.948Z,57.04
2018-10-21T12:33:41.946Z,57.33
2018-10-21T12:34:41.947Z,57.81
2018-10-21T12:35:41.941Z,57.62
2018-10-21T12:36:41.945Z,57.52
2018-10-21T12:37:41.943Z,57.14
2018-10-21T12:38:41.936Z,57.90
2018-10-21T12:39:41.934Z,57.71
2018-10-21T12:40:41.937Z,57.84
2018-10-21T12:41:41.935Z,57.84
2018-10-21T12:42:41.932Z,57.36
2018-10-21T12:43:41.930Z,56.88
2018-10-21T12:44:41.923Z,57.17
2018-10-21T12:45:41.922Z,56.78
2018-10-21T12:46:41.919Z,56.68
2018-10-21T12:47:41.916Z,56.98
2018-10-21T12:48:41.918Z,56.21
2018-10-21T12:49:41.916Z,56.40
2018-10-21T12:50:41.916Z,56.40
2018-10-21T12:51:41.916Z,56.11
2018-10-21T12:52:41.906Z,56.11